Ovid, Idaho
Current Conditions -  °F | °C
As of 5:55 PM on Saturday 22 Nov 2014 (Local Time) from KAFO Reporting Station
Broken Clouds Broken Clouds  
Wind Chill:   Ceiling: 2900
Heat Index:   Visibility: 10mi
Dew Point: -2°   Wind: 3mph
Humidity: 87%   Direction: 260°W
Pressure: 29.71"   Gusts: NA
Location:  42.3329°N, 111.271°W
Report Text: KAFO 230055Z AUTO 26003KT 10SM BKN029 BKN034 BKN085 00/M02 A2971 RMK AO2
Loading
Personal Weather Stations






























Interactive Weather Map New forecast layout! Learn more

10-Day Weather Forecast

Advertisements
Track Severe Weather on mobile